sensor_id;sensor_type;location;lat;lon;timestamp;temperature;humidity
54124;DHT22;55741;53.252;5.788;2023-09-19T00:00:34;14.50;99.90
54124;DHT22;55741;53.252;5.788;2023-09-19T00:03:01;14.40;99.90
54124;DHT22;55741;53.252;5.788;2023-09-19T00:05:28;14.40;99.90
54124;DHT22;55741;53.252;5.788;2023-09-19T00:07:56;14.50;99.90
54124;DHT22;55741;53.252;5.788;2023-09-19T00:10:25;14.50;99.90
54124;DHT22;55741;53.252;5.788;2023-09-19T00:12:53;14.60;99.90
54124;DHT22;55741;53.252;5.788;2023-09-19T00:15:25;14.60;99.90
54124;DHT22;55741;53.252;5.788;2023-09-19T00:17:57;14.60;99.90
54124;DHT22;55741;53.252;5.788;2023-09-19T00:20:23;14.60;99.90
54124;DHT22;55741;53.252;5.788;2023-09-19T00:22:50;14.70;99.90
54124;DHT22;55741;53.252;5.788;2023-09-19T00:25:20;14.60;99.90
54124;DHT22;55741;53.252;5.788;2023-09-19T00:27:46;14.60;99.90
54124;DHT22;55741;53.252;5.788;2023-09-19T00:30:15;14.70;99.90
54124;DHT22;55741;53.252;5.788;2023-09-19T00:33:05;14.70;99.90
54124;DHT22;55741;53.252;5.788;2023-09-19T00:35:34;14.70;99.90
54124;DHT22;55741;53.252;5.788;2023-09-19T00:38:01;14.70;99.90
54124;DHT22;55741;53.252;5.788;2023-09-19T00:40:28;14.70;99.90
54124;DHT22;55741;53.252;5.788;2023-09-19T00:42:58;14.60;99.90
54124;DHT22;55741;53.252;5.788;2023-09-19T00:45:26;14.60;99.90
54124;DHT22;55741;53.252;5.788;2023-09-19T00:47:54;14.60;99.90
54124;DHT22;55741;53.252;5.788;2023-09-19T00:50:22;14.60;99.90
54124;DHT22;55741;53.252;5.788;2023-09-19T00:52:50;14.60;99.90
54124;DHT22;55741;53.252;5.788;2023-09-19T00:55:16;14.60;99.90
54124;DHT22;55741;53.252;5.788;2023-09-19T00:57:45;14.50;99.90
54124;DHT22;55741;53.252;5.788;2023-09-19T01:00:12;14.50;99.90
54124;DHT22;55741;53.252;5.788;2023-09-19T01:02:42;14.40;99.90
54124;DHT22;55741;53.252;5.788;2023-09-19T01:05:09;14.40;99.90
54124;DHT22;55741;53.252;5.788;2023-09-19T01:07:36;14.40;99.90
54124;DHT22;55741;53.252;5.788;2023-09-19T01:10:08;14.40;99.90
54124;DHT22;55741;53.252;5.788;2023-09-19T01:13:00;14.40;99.90
54124;DHT22;55741;53.252;5.788;2023-09-19T01:26:54;14.40;99.90
54124;DHT22;55741;53.252;5.788;2023-09-19T01:29:34;14.30;99.90
54124;DHT22;55741;53.252;5.788;2023-09-19T01:32:05;14.30;99.90
54124;DHT22;55741;53.252;5.788;2023-09-19T01:34:51;14.30;99.90
54124;DHT22;55741;53.252;5.788;2023-09-19T01:37:21;14.40;99.90
54124;DHT22;55741;53.252;5.788;2023-09-19T01:45:12;14.40;99.90
54124;DHT22;55741;53.252;5.788;2023-09-19T01:51:05;14.40;99.90
54124;DHT22;55741;53.252;5.788;2023-09-19T01:53:23;14.40;99.90
54124;DHT22;55741;53.252;5.788;2023-09-19T01:56:19;14.40;99.90
54124;DHT22;55741;53.252;5.788;2023-09-19T01:59:11;14.40;99.90
54124;DHT22;55741;53.252;5.788;2023-09-19T02:01:39;14.40;99.90
54124;DHT22;55741;53.252;5.788;2023-09-19T02:04:07;14.40;99.90
54124;DHT22;55741;53.252;5.788;2023-09-19T02:06:33;14.40;99.90
54124;DHT22;55741;53.252;5.788;2023-09-19T02:09:02;14.40;99.90
54124;DHT22;55741;53.252;5.788;2023-09-19T02:11:49;14.40;99.90
54124;DHT22;55741;53.252;5.788;2023-09-19T02:14:15;14.40;99.90
54124;DHT22;55741;53.252;5.788;2023-09-19T02:16:41;14.40;99.90
54124;DHT22;55741;53.252;5.788;2023-09-19T02:19:07;14.40;99.90
54124;DHT22;55741;53.252;5.788;2023-09-19T02:21:33;14.40;99.90
54124;DHT22;55741;53.252;5.788;2023-09-19T02:23:59;14.40;99.90
54124;DHT22;55741;53.252;5.788;2023-09-19T02:26:25;14.40;99.90
54124;DHT22;55741;53.252;5.788;2023-09-19T02:28:51;14.40;99.90
54124;DHT22;55741;53.252;5.788;2023-09-19T02:31:36;14.40;99.90
54124;DHT22;55741;53.252;5.788;2023-09-19T02:34:03;14.50;99.90
54124;DHT22;55741;53.252;5.788;2023-09-19T02:36:29;14.50;99.90
54124;DHT22;55741;53.252;5.788;2023-09-19T02:38:58;14.50;99.90
54124;DHT22;55741;53.252;5.788;2023-09-19T02:41:23;14.60;99.90
54124;DHT22;55741;53.252;5.788;2023-09-19T02:43:49;14.60;99.90
54124;DHT22;55741;53.252;5.788;2023-09-19T02:46:15;14.60;99.90
54124;DHT22;55741;53.252;5.788;2023-09-19T02:48:42;14.60;99.90
54124;DHT22;55741;53.252;5.788;2023-09-19T02:51:08;14.50;99.90
54124;DHT22;55741;53.252;5.788;2023-09-19T02:53:34;14.60;99.90
54124;DHT22;55741;53.252;5.788;2023-09-19T02:55:59;14.60;99.90
54124;DHT22;55741;53.252;5.788;2023-09-19T02:58:26;14.50;99.90
54124;DHT22;55741;53.252;5.788;2023-09-19T03:00:53;14.50;99.90
54124;DHT22;55741;53.252;5.788;2023-09-19T03:03:19;14.50;99.90
54124;DHT22;55741;53.252;5.788;2023-09-19T03:05:45;14.50;99.90
54124;DHT22;55741;53.252;5.788;2023-09-19T03:08:14;14.50;99.90
54124;DHT22;55741;53.252;5.788;2023-09-19T03:10:46;14.50;99.90
54124;DHT22;55741;53.252;5.788;2023-09-19T03:13:12;14.40;99.90
54124;DHT22;55741;53.252;5.788;2023-09-19T03:15:41;14.40;99.90
54124;DHT22;55741;53.252;5.788;2023-09-19T03:18:09;14.40;99.90
54124;DHT22;55741;53.252;5.788;2023-09-19T03:20:35;14.40;99.90
54124;DHT22;55741;53.252;5.788;2023-09-19T03:23:01;14.40;99.90
54124;DHT22;55741;53.252;5.788;2023-09-19T03:25:28;14.40;99.90
54124;DHT22;55741;53.252;5.788;2023-09-19T03:27:56;14.30;99.90
54124;DHT22;55741;53.252;5.788;2023-09-19T03:30:23;14.30;99.90
54124;DHT22;55741;53.252;5.788;2023-09-19T03:32:49;14.30;99.90
54124;DHT22;55741;53.252;5.788;2023-09-19T03:35:16;14.30;99.90
54124;DHT22;55741;53.252;5.788;2023-09-19T03:37:43;14.30;99.90
54124;DHT22;55741;53.252;5.788;2023-09-19T03:40:11;14.30;99.90
54124;DHT22;55741;53.252;5.788;2023-09-19T03:42:41;14.20;99.90
54124;DHT22;55741;53.252;5.788;2023-09-19T03:45:08;14.20;99.90
54124;DHT22;55741;53.252;5.788;2023-09-19T03:47:38;14.20;99.90
54124;DHT22;55741;53.252;5.788;2023-09-19T03:50:05;14.20;99.90
54124;DHT22;55741;53.252;5.788;2023-09-19T03:52:31;14.20;99.90
54124;DHT22;55741;53.252;5.788;2023-09-19T03:54:57;14.20;99.90
54124;DHT22;55741;53.252;5.788;2023-09-19T03:57:23;14.20;99.90
54124;DHT22;55741;53.252;5.788;2023-09-19T03:59:49;14.20;99.90
54124;DHT22;55741;53.252;5.788;2023-09-19T04:02:14;14.30;99.90
54124;DHT22;55741;53.252;5.788;2023-09-19T04:04:51;14.30;99.90
54124;DHT22;55741;53.252;5.788;2023-09-19T04:07:18;14.30;99.90
54124;DHT22;55741;53.252;5.788;2023-09-19T04:09:48;14.30;99.90
54124;DHT22;55741;53.252;5.788;2023-09-19T04:12:15;14.40;99.90
54124;DHT22;55741;53.252;5.788;2023-09-19T04:14:42;14.40;99.90
54124;DHT22;55741;53.252;5.788;2023-09-19T04:17:08;14.50;99.90
54124;DHT22;55741;53.252;5.788;2023-09-19T04:19:35;14.50;99.90
54124;DHT22;55741;53.252;5.788;2023-09-19T04:22:01;14.50;99.90
54124;DHT22;55741;53.252;5.788;2023-09-19T04:24:28;14.50;99.90
54124;DHT22;55741;53.252;5.788;2023-09-19T04:26:54;14.50;99.90
54124;DHT22;55741;53.252;5.788;2023-09-19T04:29:20;14.50;99.90
54124;DHT22;55741;53.252;5.788;2023-09-19T04:31:45;14.50;99.90
54124;DHT22;55741;53.252;5.788;2023-09-19T04:34:12;14.60;99.90
54124;DHT22;55741;53.252;5.788;2023-09-19T04:36:41;14.60;99.90
54124;DHT22;55741;53.252;5.788;2023-09-19T04:39:07;14.50;99.90
54124;DHT22;55741;53.252;5.788;2023-09-19T04:41:35;14.50;99.90
54124;DHT22;55741;53.252;5.788;2023-09-19T04:44:02;14.60;99.90
54124;DHT22;55741;53.252;5.788;2023-09-19T04:46:29;14.60;99.90
54124;DHT22;55741;53.252;5.788;2023-09-19T04:48:55;14.60;99.90
54124;DHT22;55741;53.252;5.788;2023-09-19T04:51:20;14.60;99.90
54124;DHT22;55741;53.252;5.788;2023-09-19T04:53:46;14.60;99.90
54124;DHT22;55741;53.252;5.788;2023-09-19T04:56:13;14.60;99.90
54124;DHT22;55741;53.252;5.788;2023-09-19T04:58:39;14.60;99.90
54124;DHT22;55741;53.252;5.788;2023-09-19T05:01:05;14.60;99.90
54124;DHT22;55741;53.252;5.788;2023-09-19T05:03:31;14.60;99.90
54124;DHT22;55741;53.252;5.788;2023-09-19T05:05:57;14.60;99.90
54124;DHT22;55741;53.252;5.788;2023-09-19T05:08:23;14.60;99.90
54124;DHT22;55741;53.252;5.788;2023-09-19T05:10:49;14.60;99.90
54124;DHT22;55741;53.252;5.788;2023-09-19T05:13:15;14.70;99.90
54124;DHT22;55741;53.252;5.788;2023-09-19T05:15:41;14.70;99.90
54124;DHT22;55741;53.252;5.788;2023-09-19T05:18:07;14.70;99.90
54124;DHT22;55741;53.252;5.788;2023-09-19T05:20:33;14.70;99.90
54124;DHT22;55741;53.252;5.788;2023-09-19T05:23:02;14.70;99.90
54124;DHT22;55741;53.252;5.788;2023-09-19T05:25:34;14.80;99.90
54124;DHT22;55741;53.252;5.788;2023-09-19T05:28:09;14.80;99.90
54124;DHT22;55741;53.252;5.788;2023-09-19T05:30:36;14.80;99.90
54124;DHT22;55741;53.252;5.788;2023-09-19T05:33:04;14.70;99.90
54124;DHT22;55741;53.252;5.788;2023-09-19T05:35:31;14.80;99.90
54124;DHT22;55741;53.252;5.788;2023-09-19T05:37:57;14.80;99.90
54124;DHT22;55741;53.252;5.788;2023-09-19T05:40:24;14.80;99.90
54124;DHT22;55741;53.252;5.788;2023-09-19T05:42:52;14.80;99.90
54124;DHT22;55741;53.252;5.788;2023-09-19T05:45:18;14.70;99.90
54124;DHT22;55741;53.252;5.788;2023-09-19T05:47:50;14.80;99.90
54124;DHT22;55741;53.252;5.788;2023-09-19T05:50:17;14.80;99.90
54124;DHT22;55741;53.252;5.788;2023-09-19T05:52:47;14.80;99.90
54124;DHT22;55741;53.252;5.788;2023-09-19T05:55:18;14.80;99.90
54124;DHT22;55741;53.252;5.788;2023-09-19T05:57:49;14.80;99.90
54124;DHT22;55741;53.252;5.788;2023-09-19T06:00:15;14.80;99.90
54124;DHT22;55741;53.252;5.788;2023-09-19T06:02:43;14.80;99.90
54124;DHT22;55741;53.252;5.788;2023-09-19T06:05:10;14.90;99.90
54124;DHT22;55741;53.252;5.788;2023-09-19T06:07:56;14.90;99.90
54124;DHT22;55741;53.252;5.788;2023-09-19T06:10:26;14.90;99.90
54124;DHT22;55741;53.252;5.788;2023-09-19T06:12:53;14.90;99.90
54124;DHT22;55741;53.252;5.788;2023-09-19T06:15:40;14.90;99.90
54124;DHT22;55741;53.252;5.788;2023-09-19T06:18:11;14.90;99.90
54124;DHT22;55741;53.252;5.788;2023-09-19T06:20:40;14.90;99.90
54124;DHT22;55741;53.252;5.788;2023-09-19T06:23:10;15.00;99.90
54124;DHT22;55741;53.252;5.788;2023-09-19T06:25:35;14.90;99.90
54124;DHT22;55741;53.252;5.788;2023-09-19T06:28:01;14.90;99.90
54124;DHT22;55741;53.252;5.788;2023-09-19T06:30:31;14.90;99.90
54124;DHT22;55741;53.252;5.788;2023-09-19T06:32:59;15.00;99.90
54124;DHT22;55741;53.252;5.788;2023-09-19T06:35:25;15.00;99.90
54124;DHT22;55741;53.252;5.788;2023-09-19T06:37:55;15.00;99.90
54124;DHT22;55741;53.252;5.788;2023-09-19T06:40:23;15.10;99.90
54124;DHT22;55741;53.252;5.788;2023-09-19T06:42:53;15.10;99.90
54124;DHT22;55741;53.252;5.788;2023-09-19T06:45:21;15.10;99.90
54124;DHT22;55741;53.252;5.788;2023-09-19T06:47:49;15.10;99.90
54124;DHT22;55741;53.252;5.788;2023-09-19T06:50:16;15.20;99.90
54124;DHT22;55741;53.252;5.788;2023-09-19T06:52:44;15.20;99.90
54124;DHT22;55741;53.252;5.788;2023-09-19T06:55:11;15.20;99.90
54124;DHT22;55741;53.252;5.788;2023-09-19T06:57:39;15.30;99.90
54124;DHT22;55741;53.252;5.788;2023-09-19T07:00:09;15.30;99.90
54124;DHT22;55741;53.252;5.788;2023-09-19T07:03:05;15.30;99.90
54124;DHT22;55741;53.252;5.788;2023-09-19T07:05:32;15.40;99.90
54124;DHT22;55741;53.252;5.788;2023-09-19T07:07:59;15.40;99.90
54124;DHT22;55741;53.252;5.788;2023-09-19T07:10:25;15.40;99.90
54124;DHT22;55741;53.252;5.788;2023-09-19T07:13:06;15.40;99.90
54124;DHT22;55741;53.252;5.788;2023-09-19T07:15:34;15.50;99.90
54124;DHT22;55741;53.252;5.788;2023-09-19T07:18:06;15.50;99.90
54124;DHT22;55741;53.252;5.788;2023-09-19T07:20:32;15.50;99.90
54124;DHT22;55741;53.252;5.788;2023-09-19T07:22:58;15.60;99.90
54124;DHT22;55741;53.252;5.788;2023-09-19T07:25:27;15.60;99.90
54124;DHT22;55741;53.252;5.788;2023-09-19T07:27:57;15.70;99.90
54124;DHT22;55741;53.252;5.788;2023-09-19T07:30:27;15.80;99.90
54124;DHT22;55741;53.252;5.788;2023-09-19T07:32:53;16.00;99.90
54124;DHT22;55741;53.252;5.788;2023-09-19T07:35:19;16.10;99.90
54124;DHT22;55741;53.252;5.788;2023-09-19T07:37:49;16.20;99.90
54124;DHT22;55741;53.252;5.788;2023-09-19T07:40:35;16.40;99.90
54124;DHT22;55741;53.252;5.788;2023-09-19T07:43:02;16.50;99.90
54124;DHT22;55741;53.252;5.788;2023-09-19T07:45:31;16.50;99.90
54124;DHT22;55741;53.252;5.788;2023-09-19T07:47:57;16.70;99.90
54124;DHT22;55741;53.252;5.788;2023-09-19T07:50:23;16.70;99.90
54124;DHT22;55741;53.252;5.788;2023-09-19T07:52:50;16.80;99.90
54124;DHT22;55741;53.252;5.788;2023-09-19T07:55:20;16.80;99.90
54124;DHT22;55741;53.252;5.788;2023-09-19T07:57:49;16.90;99.90
54124;DHT22;55741;53.252;5.788;2023-09-19T08:00:15;17.00;99.90
54124;DHT22;55741;53.252;5.788;2023-09-19T08:02:42;17.10;99.90
54124;DHT22;55741;53.252;5.788;2023-09-19T08:05:13;17.20;99.90
54124;DHT22;55741;53.252;5.788;2023-09-19T08:07:42;17.30;99.90
54124;DHT22;55741;53.252;5.788;2023-09-19T08:10:09;17.30;99.90
54124;DHT22;55741;53.252;5.788;2023-09-19T08:12:40;17.40;99.90
54124;DHT22;55741;53.252;5.788;2023-09-19T08:15:21;17.40;99.90
54124;DHT22;55741;53.252;5.788;2023-09-19T08:17:48;17.50;99.90
54124;DHT22;55741;53.252;5.788;2023-09-19T08:20:14;17.60;99.90
54124;DHT22;55741;53.252;5.788;2023-09-19T08:22:50;17.70;99.90
54124;DHT22;55741;53.252;5.788;2023-09-19T08:25:25;17.60;99.90
54124;DHT22;55741;53.252;5.788;2023-09-19T08:27:51;17.60;99.90
54124;DHT22;55741;53.252;5.788;2023-09-19T08:30:19;17.40;99.90
54124;DHT22;55741;53.252;5.788;2023-09-19T08:32:50;17.30;99.90
54124;DHT22;55741;53.252;5.788;2023-09-19T08:35:16;17.20;99.90
54124;DHT22;55741;53.252;5.788;2023-09-19T08:37:45;17.10;99.90
54124;DHT22;55741;53.252;5.788;2023-09-19T08:40:11;17.00;99.90
54124;DHT22;55741;53.252;5.788;2023-09-19T08:43:00;17.00;99.90
54124;DHT22;55741;53.252;5.788;2023-09-19T08:45:27;17.10;99.90
54124;DHT22;55741;53.252;5.788;2023-09-19T08:48:17;17.10;99.90
54124;DHT22;55741;53.252;5.788;2023-09-19T08:51:07;17.30;99.90
54124;DHT22;55741;53.252;5.788;2023-09-19T08:53:51;17.30;99.90
54124;DHT22;55741;53.252;5.788;2023-09-19T08:56:18;17.30;99.90
54124;DHT22;55741;53.252;5.788;2023-09-19T08:58:50;17.40;99.90
54124;DHT22;55741;53.252;5.788;2023-09-19T09:01:19;17.40;99.90
54124;DHT22;55741;53.252;5.788;2023-09-19T09:03:54;17.40;99.90
54124;DHT22;55741;53.252;5.788;2023-09-19T09:06:21;17.50;99.90
54124;DHT22;55741;53.252;5.788;2023-09-19T09:08:47;17.50;99.90
54124;DHT22;55741;53.252;5.788;2023-09-19T09:11:15;17.60;99.90
54124;DHT22;55741;53.252;5.788;2023-09-19T09:13:46;17.70;99.90
54124;DHT22;55741;53.252;5.788;2023-09-19T09:16:12;17.70;99.90
54124;DHT22;55741;53.252;5.788;2023-09-19T09:18:39;17.70;99.90
54124;DHT22;55741;53.252;5.788;2023-09-19T09:21:06;17.80;99.90
54124;DHT22;55741;53.252;5.788;2023-09-19T09:23:32;17.90;99.90
54124;DHT22;55741;53.252;5.788;2023-09-19T09:25:59;17.90;99.90
54124;DHT22;55741;53.252;5.788;2023-09-19T09:28:32;18.00;99.90
54124;DHT22;55741;53.252;5.788;2023-09-19T09:30:59;18.10;99.90
54124;DHT22;55741;53.252;5.788;2023-09-19T09:33:26;18.20;99.90
54124;DHT22;55741;53.252;5.788;2023-09-19T09:35:54;18.30;99.90
54124;DHT22;55741;53.252;5.788;2023-09-19T09:38:25;18.30;99.90
54124;DHT22;55741;53.252;5.788;2023-09-19T09:40:55;18.40;99.90
54124;DHT22;55741;53.252;5.788;2023-09-19T09:43:36;18.50;99.90
54124;DHT22;55741;53.252;5.788;2023-09-19T09:46:17;18.60;99.90
54124;DHT22;55741;53.252;5.788;2023-09-19T09:51:38;18.50;99.90
54124;DHT22;55741;53.252;5.788;2023-09-19T09:54:18;18.50;99.90
54124;DHT22;55741;53.252;5.788;2023-09-19T09:57:01;18.50;99.90
54124;DHT22;55741;53.252;5.788;2023-09-19T09:59:53;18.50;99.90
54124;DHT22;55741;53.252;5.788;2023-09-19T10:02:29;18.50;99.90
54124;DHT22;55741;53.252;5.788;2023-09-19T10:05:15;18.50;99.90
54124;DHT22;55741;53.252;5.788;2023-09-19T10:07:54;18.40;99.90
54124;DHT22;55741;53.252;5.788;2023-09-19T10:10:34;18.50;99.90
54124;DHT22;55741;53.252;5.788;2023-09-19T10:13:14;18.40;99.90
54124;DHT22;55741;53.252;5.788;2023-09-19T10:15:51;18.50;99.90
54124;DHT22;55741;53.252;5.788;2023-09-19T10:18:25;18.50;99.90
54124;DHT22;55741;53.252;5.788;2023-09-19T10:20:52;18.60;99.90
54124;DHT22;55741;53.252;5.788;2023-09-19T10:23:19;18.60;99.90
54124;DHT22;55741;53.252;5.788;2023-09-19T10:25:53;18.60;99.90
54124;DHT22;55741;53.252;5.788;2023-09-19T10:28:20;18.60;99.90
54124;DHT22;55741;53.252;5.788;2023-09-19T10:30:50;18.70;99.90
54124;DHT22;55741;53.252;5.788;2023-09-19T10:33:21;18.60;99.90
54124;DHT22;55741;53.252;5.788;2023-09-19T10:35:51;18.60;99.90
54124;DHT22;55741;53.252;5.788;2023-09-19T10:38:37;18.60;99.90
54124;DHT22;55741;53.252;5.788;2023-09-19T10:41:07;18.60;99.90
54124;DHT22;55741;53.252;5.788;2023-09-19T10:43:33;18.60;99.90
54124;DHT22;55741;53.252;5.788;2023-09-19T10:46:03;18.50;99.90
54124;DHT22;55741;53.252;5.788;2023-09-19T10:48:31;18.50;99.90
54124;DHT22;55741;53.252;5.788;2023-09-19T10:51:06;18.40;99.90
54124;DHT22;55741;53.252;5.788;2023-09-19T10:56:23;18.10;99.90
54124;DHT22;55741;53.252;5.788;2023-09-19T10:58:50;18.10;99.90
54124;DHT22;55741;53.252;5.788;2023-09-19T11:01:16;17.90;99.90
54124;DHT22;55741;53.252;5.788;2023-09-19T11:03:44;17.80;99.90
54124;DHT22;55741;53.252;5.788;2023-09-19T11:06:15;17.80;99.90
54124;DHT22;55741;53.252;5.788;2023-09-19T11:09:00;17.90;99.90
54124;DHT22;55741;53.252;5.788;2023-09-19T11:11:45;18.10;99.90
54124;DHT22;55741;53.252;5.788;2023-09-19T11:14:40;18.20;99.90
54124;DHT22;55741;53.252;5.788;2023-09-19T11:22:23;17.90;99.90
54124;DHT22;55741;53.252;5.788;2023-09-19T11:24:52;17.80;99.90
54124;DHT22;55741;53.252;5.788;2023-09-19T11:27:17;17.70;99.90
54124;DHT22;55741;53.252;5.788;2023-09-19T11:29:44;17.60;99.90
54124;DHT22;55741;53.252;5.788;2023-09-19T11:32:10;17.50;99.90
54124;DHT22;55741;53.252;5.788;2023-09-19T11:39:40;17.50;99.90
54124;DHT22;55741;53.252;5.788;2023-09-19T11:42:45;17.50;99.90
54124;DHT22;55741;53.252;5.788;2023-09-19T11:48:05;17.30;99.90
54124;DHT22;55741;53.252;5.788;2023-09-19T11:50:32;17.10;99.90
54124;DHT22;55741;53.252;5.788;2023-09-19T11:53:02;17.00;99.90
54124;DHT22;55741;53.252;5.788;2023-09-19T11:55:31;16.90;99.90
54124;DHT22;55741;53.252;5.788;2023-09-19T11:57:58;16.80;99.90
54124;DHT22;55741;53.252;5.788;2023-09-19T12:00:25;16.70;99.90
54124;DHT22;55741;53.252;5.788;2023-09-19T12:02:55;16.60;99.90
54124;DHT22;55741;53.252;5.788;2023-09-19T12:05:29;16.60;99.90
54124;DHT22;55741;53.252;5.788;2023-09-19T12:07:55;16.60;99.90
54124;DHT22;55741;53.252;5.788;2023-09-19T12:10:21;16.60;99.90
54124;DHT22;55741;53.252;5.788;2023-09-19T12:12:49;16.60;99.90
54124;DHT22;55741;53.252;5.788;2023-09-19T12:15:22;16.60;99.90
54124;DHT22;55741;53.252;5.788;2023-09-19T12:17:48;16.70;99.90
54124;DHT22;55741;53.252;5.788;2023-09-19T12:20:14;16.80;99.90
54124;DHT22;55741;53.252;5.788;2023-09-19T12:22:41;16.80;99.90
54124;DHT22;55741;53.252;5.788;2023-09-19T12:25:15;16.90;99.90
54124;DHT22;55741;53.252;5.788;2023-09-19T12:27:44;17.00;99.90
54124;DHT22;55741;53.252;5.788;2023-09-19T12:30:13;17.10;99.90
54124;DHT22;55741;53.252;5.788;2023-09-19T12:32:43;17.20;99.90
54124;DHT22;55741;53.252;5.788;2023-09-19T12:35:10;17.20;99.90
54124;DHT22;55741;53.252;5.788;2023-09-19T12:37:51;17.30;99.90
54124;DHT22;55741;53.252;5.788;2023-09-19T12:40:21;17.30;99.90
54124;DHT22;55741;53.252;5.788;2023-09-19T12:42:57;17.30;99.90
54124;DHT22;55741;53.252;5.788;2023-09-19T12:45:29;17.30;99.90
54124;DHT22;55741;53.252;5.788;2023-09-19T12:48:22;17.20;99.90
54124;DHT22;55741;53.252;5.788;2023-09-19T12:51:12;17.10;99.90
54124;DHT22;55741;53.252;5.788;2023-09-19T12:53:44;16.90;99.90
54124;DHT22;55741;53.252;5.788;2023-09-19T12:56:13;16.80;99.90
54124;DHT22;55741;53.252;5.788;2023-09-19T12:58:57;16.70;99.90
54124;DHT22;55741;53.252;5.788;2023-09-19T13:01:28;16.60;99.90
54124;DHT22;55741;53.252;5.788;2023-09-19T13:04:17;16.60;99.90
54124;DHT22;55741;53.252;5.788;2023-09-19T13:06:47;16.50;99.90
54124;DHT22;55741;53.252;5.788;2023-09-19T13:09:15;16.50;99.90
54124;DHT22;55741;53.252;5.788;2023-09-19T13:11:42;16.60;99.90
54124;DHT22;55741;53.252;5.788;2023-09-19T13:17:03;16.70;99.90
54124;DHT22;55741;53.252;5.788;2023-09-19T13:19:49;16.70;99.90
54124;DHT22;55741;53.252;5.788;2023-09-19T13:22:40;16.90;99.90
54124;DHT22;55741;53.252;5.788;2023-09-19T13:25:21;16.90;99.90
54124;DHT22;55741;53.252;5.788;2023-09-19T13:27:49;16.90;99.90
54124;DHT22;55741;53.252;5.788;2023-09-19T13:30:20;17.00;99.90
54124;DHT22;55741;53.252;5.788;2023-09-19T13:32:47;17.00;99.90
54124;DHT22;55741;53.252;5.788;2023-09-19T13:35:14;17.00;99.90
54124;DHT22;55741;53.252;5.788;2023-09-19T13:37:40;17.10;99.90
54124;DHT22;55741;53.252;5.788;2023-09-19T13:40:11;17.10;99.90
54124;DHT22;55741;53.252;5.788;2023-09-19T13:42:37;17.10;99.90
54124;DHT22;55741;53.252;5.788;2023-09-19T13:45:23;17.20;99.90
54124;DHT22;55741;53.252;5.788;2023-09-19T13:47:50;17.10;99.90
54124;DHT22;55741;53.252;5.788;2023-09-19T13:50:16;17.10;99.90
54124;DHT22;55741;53.252;5.788;2023-09-19T13:52:44;17.10;99.90
54124;DHT22;55741;53.252;5.788;2023-09-19T13:55:11;17.00;99.90
54124;DHT22;55741;53.252;5.788;2023-09-19T13:57:40;17.00;99.90
54124;DHT22;55741;53.252;5.788;2023-09-19T14:00:06;17.10;99.90
54124;DHT22;55741;53.252;5.788;2023-09-19T14:02:35;17.10;99.90
54124;DHT22;55741;53.252;5.788;2023-09-19T14:05:01;17.10;99.90
54124;DHT22;55741;53.252;5.788;2023-09-19T14:07:27;17.10;99.90
54124;DHT22;55741;53.252;5.788;2023-09-19T14:09:53;17.10;99.90
54124;DHT22;55741;53.252;5.788;2023-09-19T14:12:18;17.10;99.90
54124;DHT22;55741;53.252;5.788;2023-09-19T14:14:44;17.00;99.90
54124;DHT22;55741;53.252;5.788;2023-09-19T14:17:10;16.90;99.90
54124;DHT22;55741;53.252;5.788;2023-09-19T14:19:36;16.90;99.90
54124;DHT22;55741;53.252;5.788;2023-09-19T14:22:03;16.80;99.90
54124;DHT22;55741;53.252;5.788;2023-09-19T14:24:33;16.90;99.90
54124;DHT22;55741;53.252;5.788;2023-09-19T14:26:59;16.90;99.90
54124;DHT22;55741;53.252;5.788;2023-09-19T14:29:25;16.90;99.90
54124;DHT22;55741;53.252;5.788;2023-09-19T14:31:51;16.90;99.90
54124;DHT22;55741;53.252;5.788;2023-09-19T14:34:17;17.00;99.90
54124;DHT22;55741;53.252;5.788;2023-09-19T14:36:45;17.00;99.90
54124;DHT22;55741;53.252;5.788;2023-09-19T14:39:10;17.10;99.90
54124;DHT22;55741;53.252;5.788;2023-09-19T14:41:36;17.10;99.90
54124;DHT22;55741;53.252;5.788;2023-09-19T14:44:03;17.20;99.90
54124;DHT22;55741;53.252;5.788;2023-09-19T14:46:30;17.20;99.90
54124;DHT22;55741;53.252;5.788;2023-09-19T14:48:56;17.30;99.90
54124;DHT22;55741;53.252;5.788;2023-09-19T14:51:29;17.30;99.90
54124;DHT22;55741;53.252;5.788;2023-09-19T14:53:55;17.40;99.90
54124;DHT22;55741;53.252;5.788;2023-09-19T14:56:23;17.30;99.90
54124;DHT22;55741;53.252;5.788;2023-09-19T14:59:09;17.40;99.90
54124;DHT22;55741;53.252;5.788;2023-09-19T15:01:36;17.40;99.90
54124;DHT22;55741;53.252;5.788;2023-09-19T15:04:02;17.40;99.90
54124;DHT22;55741;53.252;5.788;2023-09-19T15:06:28;17.50;99.90
54124;DHT22;55741;53.252;5.788;2023-09-19T15:08:54;17.40;99.90
54124;DHT22;55741;53.252;5.788;2023-09-19T15:11:20;17.40;99.90
54124;DHT22;55741;53.252;5.788;2023-09-19T15:13:48;17.50;99.90
54124;DHT22;55741;53.252;5.788;2023-09-19T15:16:16;17.60;99.90
54124;DHT22;55741;53.252;5.788;2023-09-19T15:18:43;17.60;99.90
54124;DHT22;55741;53.252;5.788;2023-09-19T15:21:11;17.70;99.90
54124;DHT22;55741;53.252;5.788;2023-09-19T15:23:39;17.70;99.90
54124;DHT22;55741;53.252;5.788;2023-09-19T15:26:11;17.60;99.90
54124;DHT22;55741;53.252;5.788;2023-09-19T15:28:37;17.60;99.90
54124;DHT22;55741;53.252;5.788;2023-09-19T15:31:05;17.60;99.90
54124;DHT22;55741;53.252;5.788;2023-09-19T15:33:32;17.50;99.90
54124;DHT22;55741;53.252;5.788;2023-09-19T15:36:02;17.50;99.90
54124;DHT22;55741;53.252;5.788;2023-09-19T15:38:30;17.50;99.90
54124;DHT22;55741;53.252;5.788;2023-09-19T15:40:58;17.40;99.90
54124;DHT22;55741;53.252;5.788;2023-09-19T15:43:24;17.40;99.90
54124;DHT22;55741;53.252;5.788;2023-09-19T15:45:50;17.40;99.90
54124;DHT22;55741;53.252;5.788;2023-09-19T15:48:16;17.40;99.90
54124;DHT22;55741;53.252;5.788;2023-09-19T15:50:42;17.30;99.90
54124;DHT22;55741;53.252;5.788;2023-09-19T15:53:10;17.30;99.90
54124;DHT22;55741;53.252;5.788;2023-09-19T15:55:41;17.30;99.90
54124;DHT22;55741;53.252;5.788;2023-09-19T15:58:08;17.30;99.90
54124;DHT22;55741;53.252;5.788;2023-09-19T16:00:34;17.20;99.90
54124;DHT22;55741;53.252;5.788;2023-09-19T16:03:02;17.20;99.90
54124;DHT22;55741;53.252;5.788;2023-09-19T16:05:35;17.10;99.90
54124;DHT22;55741;53.252;5.788;2023-09-19T16:08:06;17.10;99.90
54124;DHT22;55741;53.252;5.788;2023-09-19T16:10:36;17.00;99.90
54124;DHT22;55741;53.252;5.788;2023-09-19T16:13:03;17.00;99.90
54124;DHT22;55741;53.252;5.788;2023-09-19T16:15:29;16.90;99.90
54124;DHT22;55741;53.252;5.788;2023-09-19T16:17:55;16.90;99.90
54124;DHT22;55741;53.252;5.788;2023-09-19T16:20:21;16.80;99.90
54124;DHT22;55741;53.252;5.788;2023-09-19T16:22:49;16.80;99.90
54124;DHT22;55741;53.252;5.788;2023-09-19T16:25:15;16.70;99.90
54124;DHT22;55741;53.252;5.788;2023-09-19T16:27:40;16.70;99.90